createdAt,value
2022-11-10T00:02:18.041Z,89.85
2022-11-10T00:05:06.288Z,89.90
2022-11-10T00:07:54.573Z,89.90
2022-11-10T00:10:58.458Z,89.91
2022-11-10T00:14:06.579Z,89.89
2022-11-10T00:17:04.756Z,89.91
2022-11-10T00:19:53.149Z,89.95
2022-11-10T00:22:42.428Z,89.88
2022-11-10T00:25:32.099Z,89.86
2022-11-10T00:28:19.909Z,89.92
2022-11-10T00:31:08.039Z,89.95
2022-11-10T00:33:56.220Z,89.95
2022-11-10T00:36:44.087Z,89.95
2022-11-10T00:39:31.519Z,89.97
2022-11-10T00:42:18.615Z,89.90
2022-11-10T00:45:07.637Z,89.95
2022-11-10T00:47:55.814Z,89.96
2022-11-10T00:50:43.454Z,89.94
2022-11-10T00:53:32.014Z,90.03
2022-11-10T00:56:19.506Z,90.04
2022-11-10T00:59:07.380Z,90.04
2022-11-10T01:01:56.204Z,90.16
2022-11-10T01:04:44.243Z,90.32
2022-11-10T01:07:32.743Z,90.41
2022-11-10T01:10:20.382Z,90.45
2022-11-10T01:13:07.597Z,90.42
2022-11-10T01:15:55.039Z,90.36
2022-11-10T01:18:43.726Z,90.55
2022-11-10T01:21:31.908Z,90.44
2022-11-10T01:24:21.716Z,90.54
2022-11-10T01:27:09.348Z,90.54
2022-11-10T01:29:56.949Z,90.65
2022-11-10T01:32:46.335Z,90.73
2022-11-10T01:35:35.228Z,90.69
2022-11-10T01:38:25.840Z,90.61
2022-11-10T01:41:14.310Z,90.67
2022-11-10T01:44:18.434Z,90.76
2022-11-10T01:47:06.006Z,90.85
2022-11-10T01:49:54.583Z,90.86
2022-11-10T01:52:44.584Z,90.76
2022-11-10T01:55:35.027Z,90.82
2022-11-10T01:58:26.270Z,90.88
2022-11-10T02:01:14.094Z,90.86
2022-11-10T02:04:07.948Z,90.90
2022-11-10T02:06:55.559Z,90.89
2022-11-10T02:09:43.150Z,90.99
2022-11-10T02:12:37.245Z,91.00
2022-11-10T02:15:24.842Z,91.16
2022-11-10T02:18:14.519Z,91.25
2022-11-10T02:21:06.019Z,91.36
2022-11-10T02:23:54.472Z,91.20
2022-11-10T02:26:49.135Z,91.15
2022-11-10T02:29:37.925Z,91.08
2022-11-10T02:32:25.770Z,90.90
2022-11-10T02:35:15.210Z,90.74
2022-11-10T02:38:03.280Z,90.76
2022-11-10T02:40:51.530Z,90.62
2022-11-10T02:43:41.204Z,90.67
2022-11-10T02:46:28.729Z,90.82
2022-11-10T02:49:15.964Z,90.97
2022-11-10T02:52:03.308Z,90.97
2022-11-10T02:54:51.772Z,91.09
2022-11-10T02:57:40.964Z,91.16
2022-11-10T03:00:28.694Z,91.20
2022-11-10T03:03:16.028Z,91.32
2022-11-10T03:06:04.319Z,91.27
2022-11-10T03:08:52.554Z,91.45
2022-11-10T03:11:39.583Z,91.69
2022-11-10T03:14:27.210Z,91.87
2022-11-10T03:17:15.750Z,92.11
2022-11-10T03:20:04.045Z,92.27
2022-11-10T03:22:52.407Z,92.44
2022-11-10T03:25:40.437Z,92.56
2022-11-10T03:28:28.635Z,92.62
2022-11-10T03:31:16.196Z,92.66
2022-11-10T03:34:03.212Z,92.73
2022-11-10T03:36:50.393Z,92.83
2022-11-10T03:39:40.056Z,92.87
2022-11-10T03:42:28.649Z,92.84
2022-11-10T03:45:16.381Z,92.73
2022-11-10T03:48:05.718Z,92.73
2022-11-10T03:50:53.185Z,92.75
2022-11-10T03:53:42.034Z,92.74
2022-11-10T03:56:29.809Z,92.73
2022-11-10T03:59:17.981Z,92.67
2022-11-10T04:02:05.728Z,92.67
2022-11-10T04:05:12.933Z,92.71
2022-11-10T04:08:18.759Z,92.70
2022-11-10T04:11:06.530Z,92.63
2022-11-10T04:14:11.874Z,92.54
2022-11-10T04:17:01.045Z,92.54
2022-11-10T04:19:48.155Z,92.55
2022-11-10T04:22:54.112Z,92.55
2022-11-10T04:25:44.063Z,92.49
2022-11-10T04:28:33.174Z,92.45
2022-11-10T04:31:22.441Z,92.30
2022-11-10T04:34:13.073Z,92.29
2022-11-10T04:37:01.023Z,92.27
2022-11-10T04:39:48.432Z,92.23
2022-11-10T04:42:36.113Z,92.12
2022-11-10T04:45:23.418Z,92.05
2022-11-10T04:48:11.665Z,92.07
2022-11-10T04:51:07.110Z,92.07
2022-11-10T04:53:55.100Z,92.07
2022-11-10T04:56:43.240Z,92.05
2022-11-10T04:59:31.240Z,92.03
2022-11-10T05:02:18.526Z,92.00
2022-11-10T05:05:08.293Z,92.00
2022-11-10T05:07:58.108Z,91.98
2022-11-10T05:10:47.703Z,91.94
2022-11-10T05:13:36.473Z,91.88
2022-11-10T05:16:23.666Z,91.94
2022-11-10T05:19:11.818Z,91.92
2022-11-10T05:21:59.159Z,91.94
2022-11-10T05:24:46.459Z,91.90
2022-11-10T05:27:34.733Z,91.93
2022-11-10T05:30:22.976Z,92.00
2022-11-10T05:33:11.938Z,92.03
2022-11-10T05:35:59.698Z,92.04
2022-11-10T05:38:48.844Z,92.03
2022-11-10T05:41:36.719Z,92.04
2022-11-10T05:44:24.364Z,92.01
2022-11-10T05:47:12.509Z,91.99
2022-11-10T05:50:00.614Z,91.95
2022-11-10T05:52:52.358Z,91.95
2022-11-10T05:55:40.450Z,91.90
2022-11-10T05:58:27.981Z,91.91
2022-11-10T06:01:15.586Z,91.90
2022-11-10T06:04:03.439Z,91.87
2022-11-10T06:06:51.838Z,91.86
2022-11-10T06:09:39.847Z,91.80
2022-11-10T06:12:29.757Z,91.72
2022-11-10T06:15:17.450Z,91.67
2022-11-10T06:18:06.453Z,91.67
2022-11-10T06:20:54.488Z,91.60
2022-11-10T06:23:43.234Z,91.56
2022-11-10T06:26:31.893Z,91.62
2022-11-10T06:29:25.532Z,91.57
2022-11-10T06:32:11.768Z,91.45
2022-11-10T06:35:00.806Z,91.34
2022-11-10T06:38:06.590Z,91.30
2022-11-10T06:40:56.486Z,91.35
2022-11-10T06:43:43.992Z,91.40
2022-11-10T06:46:34.982Z,91.28
2022-11-10T06:49:22.133Z,91.20
2022-11-10T06:52:10.207Z,91.13
2022-11-10T06:54:58.897Z,91.03
2022-11-10T06:57:47.538Z,90.92
2022-11-10T07:00:36.686Z,90.83
2022-11-10T07:03:24.597Z,90.73
2022-11-10T07:06:13.059Z,90.66
2022-11-10T07:09:00.887Z,90.65
2022-11-10T07:11:50.646Z,90.66
2022-11-10T07:14:38.287Z,90.68
2022-11-10T07:17:25.787Z,90.57
2022-11-10T07:20:13.922Z,90.54
2022-11-10T07:23:03.332Z,90.50
2022-11-10T07:25:50.552Z,90.51
2022-11-10T07:28:39.263Z,90.52
2022-11-10T07:31:28.082Z,90.50
2022-11-10T07:34:15.942Z,90.55
2022-11-10T07:37:04.373Z,90.49
2022-11-10T07:39:51.654Z,90.46
2022-11-10T07:42:41.009Z,90.37
2022-11-10T07:45:28.273Z,90.24
2022-11-10T07:48:16.617Z,90.30
2022-11-10T07:51:04.925Z,90.33
2022-11-10T07:53:52.296Z,90.29
2022-11-10T07:56:39.410Z,90.17
2022-11-10T07:59:26.362Z,90.13
2022-11-10T08:02:13.688Z,90.05
2022-11-10T08:05:00.828Z,89.97
2022-11-10T08:07:50.381Z,89.90
2022-11-10T08:10:38.483Z,89.77
2022-11-10T08:13:25.920Z,89.65
2022-11-10T08:16:14.653Z,89.39
2022-11-10T08:19:02.620Z,89.22
2022-11-10T08:21:50.977Z,89.08
2022-11-10T08:24:38.907Z,88.94
2022-11-10T08:27:26.169Z,88.89
2022-11-10T08:30:14.908Z,88.66
2022-11-10T08:33:03.155Z,88.44
2022-11-10T08:35:52.715Z,88.37
2022-11-10T08:38:42.118Z,88.30
2022-11-10T08:41:30.687Z,88.17
2022-11-10T08:44:20.765Z,88.12
2022-11-10T08:47:08.067Z,87.98
2022-11-10T08:49:55.983Z,87.91
2022-11-10T08:52:46.207Z,87.71
2022-11-10T08:55:39.714Z,87.55
2022-11-10T08:58:27.387Z,87.56
2022-11-10T09:01:15.737Z,87.54
2022-11-10T09:04:04.271Z,87.78
2022-11-10T09:06:55.217Z,87.60
2022-11-10T09:09:46.667Z,87.47
2022-11-10T09:12:32.948Z,87.28
2022-11-10T09:15:20.458Z,87.15
2022-11-10T09:18:08.875Z,87.18
2022-11-10T09:20:57.997Z,87.16
2022-11-10T09:23:46.618Z,86.97
2022-11-10T09:26:40.832Z,87.05
2022-11-10T09:29:28.349Z,87.10
2022-11-10T09:32:15.956Z,87.11
2022-11-10T09:35:04.569Z,86.98
2022-11-10T09:37:53.266Z,86.84
2022-11-10T09:41:02.904Z,86.77
2022-11-10T09:44:17.597Z,86.72
2022-11-10T09:47:42.452Z,86.78
2022-11-10T09:50:17.609Z,86.81
2022-11-10T09:53:06.149Z,86.88
2022-11-10T09:56:02.184Z,87.00
2022-11-10T09:58:51.983Z,87.16
2022-11-10T10:01:51.684Z,87.22
2022-11-10T10:05:19.013Z,87.37
2022-11-10T10:08:11.892Z,87.47
2022-11-10T10:11:08.320Z,87.62
2022-11-10T10:14:17.976Z,87.73
2022-11-10T10:17:31.257Z,87.72
2022-11-10T10:20:35.338Z,87.84
2022-11-10T10:26:31.082Z,87.99
2022-11-10T10:29:37.061Z,88.15
2022-11-10T10:32:23.273Z,88.24
2022-11-10T10:35:17.222Z,88.41
2022-11-10T10:38:06.112Z,88.44
2022-11-10T10:40:54.411Z,88.53
2022-11-10T10:43:48.078Z,88.52
2022-11-10T10:47:02.768Z,88.65
2022-11-10T10:49:52.352Z,88.76
2022-11-10T10:52:39.199Z,88.90
2022-11-10T10:55:35.722Z,89.01
2022-11-10T10:58:53.573Z,89.19
2022-11-10T11:01:41.004Z,89.38
2022-11-10T11:04:35.281Z,89.56
2022-11-10T11:07:50.465Z,89.69
2022-11-10T11:10:54.360Z,89.79
2022-11-10T11:14:27.233Z,89.92
2022-11-10T11:17:21.165Z,90.07
2022-11-10T11:20:14.741Z,90.10
2022-11-10T11:23:16.982Z,90.06
2022-11-10T11:26:45.673Z,89.99
2022-11-10T11:30:03.762Z,90.02
2022-11-10T11:33:22.505Z,90.08
2022-11-10T11:36:30.782Z,90.08
2022-11-10T11:39:36.881Z,90.19
2022-11-10T11:42:33.728Z,90.08
2022-11-10T11:45:46.065Z,90.09
2022-11-10T11:49:10.215Z,90.54
2022-11-10T11:52:25.732Z,90.52
2022-11-10T11:55:55.942Z,90.27
2022-11-10T11:59:06.020Z,90.24
2022-11-10T12:02:14.281Z,90.30
2022-11-10T12:05:25.959Z,90.34
2022-11-10T12:08:47.959Z,90.41
2022-11-10T12:11:41.890Z,90.64
2022-11-10T12:14:40.848Z,90.82
2022-11-10T12:17:55.402Z,91.00
2022-11-10T12:21:19.972Z,91.10
2022-11-10T12:24:31.188Z,91.16
2022-11-10T12:27:32.492Z,91.28
2022-11-10T12:30:21.483Z,91.45
2022-11-10T12:33:44.525Z,91.46
2022-11-10T12:36:33.797Z,91.49
2022-11-10T12:39:38.772Z,91.58
2022-11-10T12:42:31.051Z,91.55
2022-11-10T12:45:28.494Z,91.50
2022-11-10T12:48:16.677Z,91.60
2022-11-10T12:51:15.178Z,91.52
2022-11-10T12:54:04.995Z,91.54
2022-11-10T12:57:04.634Z,91.66
2022-11-10T13:00:08.289Z,91.84
2022-11-10T13:03:23.393Z,91.89
2022-11-10T13:06:27.367Z,91.99
2022-11-10T13:09:31.378Z,91.94
2022-11-10T13:12:23.107Z,91.96
2022-11-10T13:15:39.990Z,91.98
2022-11-10T13:18:41.601Z,92.10
2022-11-10T13:22:00.967Z,92.35
2022-11-10T13:24:54.262Z,92.47
2022-11-10T13:27:50.562Z,92.64
2022-11-10T13:30:45.583Z,92.83
2022-11-10T13:33:39.676Z,92.99
2022-11-10T13:36:52.092Z,93.19
2022-11-10T13:39:40.464Z,93.34
2022-11-10T13:42:28.383Z,93.44
2022-11-10T13:45:40.284Z,93.52
2022-11-10T13:48:51.694Z,93.62
2022-11-10T13:52:18.614Z,93.79
2022-11-10T13:55:29.405Z,93.92
2022-11-10T13:58:21.130Z,94.09
2022-11-10T14:01:23.344Z,94.10
2022-11-10T14:04:12.735Z,94.27
2022-11-10T14:07:00.617Z,94.44
2022-11-10T14:09:53.034Z,94.54
2022-11-10T14:12:52.714Z,94.64
2022-11-10T14:15:46.633Z,94.83
2022-11-10T14:18:48.904Z,94.99
2022-11-10T14:21:55.394Z,95.23
2022-11-10T14:25:08.000Z,95.40
2022-11-10T14:27:58.379Z,95.53
2022-11-10T14:30:51.167Z,95.66
2022-11-10T14:33:39.175Z,95.87
2022-11-10T14:36:26.913Z,95.99
2022-11-10T14:39:16.053Z,96.13
2022-11-10T14:42:04.982Z,96.20
2022-11-10T14:45:18.841Z,96.34
2022-11-10T14:48:18.128Z,96.47
2022-11-10T14:51:17.309Z,96.64
2022-11-10T14:54:04.673Z,96.80
2022-11-10T14:56:53.067Z,96.95
2022-11-10T14:59:40.337Z,97.09
2022-11-10T15:02:28.419Z,97.25
2022-11-10T15:05:16.449Z,97.39
2022-11-10T15:08:05.922Z,97.51
2022-11-10T15:10:53.669Z,97.73
2022-11-10T15:13:42.983Z,97.89
2022-11-10T15:16:36.240Z,98.11
2022-11-10T15:19:49.847Z,98.18
2022-11-10T15:22:37.520Z,98.21
2022-11-10T15:25:27.757Z,98.22
2022-11-10T15:28:26.665Z,98.26
2022-11-10T15:31:26.488Z,98.32
2022-11-10T15:34:31.911Z,98.38
2022-11-10T15:37:34.002Z,98.44
2022-11-10T15:40:45.414Z,98.58
2022-11-10T15:43:34.675Z,98.64
2022-11-10T15:46:25.048Z,98.64
2022-11-10T15:49:35.066Z,98.73
2022-11-10T15:52:24.059Z,98.73
2022-11-10T15:55:23.473Z,98.88
2022-11-10T15:58:19.628Z,98.96
2022-11-10T16:01:10.551Z,99.16
2022-11-10T16:03:58.505Z,99.19
2022-11-10T16:06:46.041Z,99.27
2022-11-10T16:09:34.399Z,99.36
2022-11-10T16:12:22.354Z,99.37
2022-11-10T16:15:16.678Z,99.49
2022-11-10T16:18:05.294Z,99.54
2022-11-10T16:20:53.071Z,99.60
2022-11-10T16:23:42.332Z,99.65
2022-11-10T16:26:31.536Z,99.65
2022-11-10T16:29:19.666Z,99.74
2022-11-10T16:32:07.347Z,99.84
2022-11-10T16:34:55.166Z,99.87
2022-11-10T16:37:43.306Z,99.91
2022-11-10T16:40:31.107Z,100.00
2022-11-10T16:43:19.392Z,100.00
2022-11-10T16:46:23.033Z,100.00
2022-11-10T16:49:27.304Z,100.00
2022-11-10T16:52:17.698Z,100.00
2022-11-10T16:55:06.375Z,100.00
2022-11-10T16:57:55.238Z,100.00
2022-11-10T17:00:44.124Z,100.00
2022-11-10T17:03:40.321Z,100.00
2022-11-10T17:06:28.903Z,100.00
2022-11-10T17:09:21.412Z,100.00
2022-11-10T17:12:12.919Z,100.00
2022-11-10T17:15:00.946Z,100.00
2022-11-10T17:17:52.122Z,99.91
2022-11-10T17:20:40.024Z,99.82
2022-11-10T17:23:29.104Z,99.84
2022-11-10T17:26:18.275Z,99.74
2022-11-10T17:29:06.380Z,99.70
2022-11-10T17:31:55.795Z,99.68
2022-11-10T17:34:43.965Z,99.67
2022-11-10T17:37:31.528Z,99.72
2022-11-10T17:40:23.374Z,99.67
2022-11-10T17:43:12.959Z,99.64
2022-11-10T17:46:00.287Z,99.50
2022-11-10T17:48:50.356Z,99.44
2022-11-10T17:51:38.413Z,99.35
2022-11-10T17:54:25.747Z,99.31
2022-11-10T17:57:14.507Z,99.18
2022-11-10T18:00:02.524Z,99.09
2022-11-10T18:02:55.496Z,98.97
2022-11-10T18:05:44.753Z,98.87
2022-11-10T18:08:33.263Z,98.77
2022-11-10T18:11:20.617Z,98.68
2022-11-10T18:14:09.085Z,98.60
2022-11-10T18:16:58.884Z,98.50
2022-11-10T18:19:48.024Z,98.46
2022-11-10T18:22:35.525Z,98.34
2022-11-10T18:25:22.452Z,98.19
2022-11-10T18:28:12.186Z,98.08
2022-11-10T18:31:10.426Z,97.95
2022-11-10T18:33:57.503Z,97.94
2022-11-10T18:36:45.650Z,97.88
2022-11-10T18:39:32.470Z,97.80
2022-11-10T18:42:19.827Z,97.66
2022-11-10T18:45:08.676Z,97.53
2022-11-10T18:48:02.803Z,97.49
2022-11-10T18:50:51.619Z,97.46
2022-11-10T18:53:40.501Z,97.37
2022-11-10T18:56:28.654Z,97.31
2022-11-10T18:59:16.987Z,97.24
2022-11-10T19:02:04.341Z,97.17
2022-11-10T19:04:53.661Z,97.15
2022-11-10T19:07:42.923Z,97.09
2022-11-10T19:10:31.674Z,97.01
2022-11-10T19:13:19.637Z,96.93
2022-11-10T19:16:12.809Z,96.84
2022-11-10T19:19:00.725Z,96.80
2022-11-10T19:21:48.078Z,96.80
2022-11-10T19:24:53.826Z,96.64
2022-11-10T19:27:26.710Z,96.58
2022-11-10T19:30:15.210Z,96.58
2022-11-10T19:33:02.349Z,96.59
2022-11-10T19:35:49.649Z,96.60
2022-11-10T19:38:37.816Z,96.60
2022-11-10T19:41:27.507Z,96.62
2022-11-10T19:44:15.648Z,96.60
2022-11-10T19:47:04.260Z,96.58
2022-11-10T19:49:51.531Z,96.61
2022-11-10T19:52:39.827Z,96.58
2022-11-10T19:55:27.155Z,96.60
2022-11-10T19:58:14.526Z,96.62
2022-11-10T20:01:02.229Z,96.59
2022-11-10T20:03:49.247Z,96.58
2022-11-10T20:06:37.414Z,96.54
2022-11-10T20:09:25.034Z,96.58
2022-11-10T20:12:13.845Z,96.55
2022-11-10T20:15:02.749Z,96.52
2022-11-10T20:17:50.782Z,96.46
2022-11-10T20:20:39.351Z,96.38
2022-11-10T20:23:27.303Z,96.36
2022-11-10T20:26:17.139Z,96.37
2022-11-10T20:29:04.162Z,96.29
2022-11-10T20:31:52.054Z,96.27
2022-11-10T20:34:40.157Z,96.25
2022-11-10T20:37:27.644Z,96.26
2022-11-10T20:40:42.307Z,96.18
2022-11-10T20:43:05.739Z,96.17
2022-11-10T20:45:54.621Z,96.13
2022-11-10T20:48:42.972Z,96.10
2022-11-10T20:51:30.436Z,96.06
2022-11-10T20:54:17.910Z,96.01
2022-11-10T20:57:06.555Z,95.95
2022-11-10T20:59:56.038Z,95.94
2022-11-10T21:02:44.559Z,95.90
2022-11-10T21:05:32.323Z,95.87
2022-11-10T21:08:20.023Z,95.86
2022-11-10T21:11:09.444Z,95.90
2022-11-10T21:13:56.853Z,96.01
2022-11-10T21:16:44.110Z,96.06
2022-11-10T21:19:35.243Z,96.01
2022-11-10T21:22:22.807Z,96.10
2022-11-10T21:25:10.650Z,96.11
2022-11-10T21:27:59.210Z,96.15
2022-11-10T21:30:46.344Z,96.15
2022-11-10T21:33:35.310Z,96.16
2022-11-10T21:36:23.191Z,96.19
2022-11-10T21:39:10.617Z,96.17
2022-11-10T21:41:58.331Z,96.15
2022-11-10T21:44:45.772Z,96.16
2022-11-10T21:47:34.706Z,96.17
2022-11-10T21:50:23.027Z,96.18
2022-11-10T21:53:11.186Z,96.21
2022-11-10T21:56:03.284Z,96.25
2022-11-10T21:58:50.583Z,96.26
2022-11-10T22:01:38.989Z,96.17
2022-11-10T22:04:26.533Z,96.13
2022-11-10T22:07:24.566Z,96.14
2022-11-10T22:10:30.250Z,96.25
2022-11-10T22:13:39.123Z,96.26
2022-11-10T22:17:02.538Z,96.15
2022-11-10T22:19:49.858Z,96.16
2022-11-10T22:22:37.493Z,96.25
2022-11-10T22:25:27.580Z,96.24
2022-11-10T22:28:15.009Z,96.21
2022-11-10T22:31:03.988Z,96.12
2022-11-10T22:33:51.708Z,96.01
2022-11-10T22:36:39.385Z,95.96
2022-11-10T22:39:45.169Z,95.95
2022-11-10T22:42:51.677Z,95.97
2022-11-10T22:45:39.634Z,95.83
2022-11-10T22:48:26.931Z,95.77
2022-11-10T22:51:14.266Z,95.68
2022-11-10T22:54:01.427Z,95.56
2022-11-10T22:56:50.646Z,95.51
2022-11-10T22:59:38.380Z,95.41
2022-11-10T23:02:26.322Z,95.31
2022-11-10T23:05:15.101Z,95.18
2022-11-10T23:08:03.526Z,95.04
2022-11-10T23:11:00.517Z,94.90
2022-11-10T23:13:50.151Z,94.72
2022-11-10T23:16:37.607Z,94.66
2022-11-10T23:19:25.312Z,94.65
2022-11-10T23:22:13.578Z,94.68
2022-11-10T23:25:01.153Z,94.54
2022-11-10T23:27:51.074Z,94.41
2022-11-10T23:30:39.456Z,94.32
2022-11-10T23:33:32.538Z,94.30
2022-11-10T23:36:19.720Z,94.29
2022-11-10T23:39:07.803Z,94.26
2022-11-10T23:41:55.418Z,94.21
2022-11-10T23:44:42.904Z,94.19
2022-11-10T23:47:31.037Z,94.22
2022-11-10T23:50:18.246Z,94.32
2022-11-10T23:53:05.218Z,94.38
2022-11-10T23:56:01.807Z,94.50
2022-11-10T23:58:49.684Z,94.61
